Time;durP1;ratioP1;P1;durP2;ratioP2;P2;SDS_P1;SDS_P2;PMS_P1;PMS_P2;Temp;Humidity;BMP_temperature;BMP_pressure;BME280_temperature;BME280_humidity;BME280_pressure;Samples;Min_cycle;Max_cycle;Signal;HPM_P1;HPM_P2
2023/01/23 00:01:25;;;;;;;57.35;22.38;;;;;;;2.58;90.79;102875.81;5074593;28;20044;-52
2023/01/23 00:03:54;;;;;;;59.55;24.13;;;;;;;2.46;90.43;102875.31;5074139;28;20120;-51
2023/01/23 00:06:21;;;;;;;59.30;23.65;;;;;;;2.36;91.15;102875.66;5074178;28;20401;-52
2023/01/23 00:08:48;;;;;;;54.47;21.25;;;;;;;2.39;91.43;102873.78;5073750;28;20548;-51
2023/01/23 00:11:18;;;;;;;51.50;21.48;;;;;;;2.52;90.73;102871.63;5074012;28;20045;-52
2023/01/23 00:13:45;;;;;;;57.10;22.30;;;;;;;2.47;90.62;102873.53;5073894;28;20072;-52
2023/01/23 00:16:16;;;;;;;52.53;21.60;;;;;;;2.43;91.01;102877.16;5073917;28;20193;-50
2023/01/23 00:18:44;;;;;;;51.55;22.65;;;;;;;2.57;90.37;102874.97;5073761;28;20394;-50
2023/01/23 00:21:14;;;;;;;55.40;22.77;;;;;;;2.50;90.32;102876.06;5074040;28;20036;-51
2023/01/23 00:23:43;;;;;;;51.45;22.02;;;;;;;2.30;90.92;102871.47;5074099;28;20055;-51
2023/01/23 00:26:14;;;;;;;59.10;22.38;;;;;;;2.30;90.96;102874.09;5073669;28;20375;-52
2023/01/23 00:28:43;;;;;;;52.00;22.58;;;;;;;2.37;91.27;102877.38;5073939;28;20099;-51
2023/01/23 00:31:14;;;;;;;57.15;22.80;;;;;;;2.48;90.73;102872.66;5073813;28;20055;-52
2023/01/23 00:33:43;;;;;;;57.88;23.00;;;;;;;2.55;90.56;102876.78;5073558;28;20053;-51
2023/01/23 00:36:11;;;;;;;49.60;21.42;;;;;;;2.50;90.59;102865.59;5072426;28;20338;-50
2023/01/23 00:38:38;;;;;;;47.85;20.80;;;;;;;2.37;90.45;102872.13;5073786;28;20110;-52
2023/01/23 00:41:06;;;;;;;49.45;20.27;;;;;;;2.33;90.79;102866.13;5073760;28;20482;-52
2023/01/23 00:43:33;;;;;;;44.10;20.27;;;;;;;2.16;91.92;102871.88;5073484;28;20048;-51
2023/01/23 00:46:00;;;;;;;42.63;19.20;;;;;;;2.19;91.22;102873.56;5073834;28;20056;-51
2023/01/23 00:48:27;;;;;;;44.03;19.33;;;;;;;2.09;90.71;102854.66;5073238;28;20638;-50
2023/01/23 00:50:54;;;;;;;41.55;18.85;;;;;;;2.08;91.89;102872.13;5073820;28;20544;-50
2023/01/23 00:53:21;;;;;;;42.55;18.60;;;;;;;2.24;91.78;102864.66;5073258;28;20045;-52
2023/01/23 00:55:48;;;;;;;44.65;20.13;;;;;;;2.14;91.39;102868.47;5073396;28;20048;-51
2023/01/23 00:58:15;;;;;;;43.05;19.48;;;;;;;2.13;91.57;102869.38;5073326;28;20044;-52
2023/01/23 01:00:42;;;;;;;46.35;19.23;;;;;;;2.15;91.41;102870.19;5073377;28;20044;-51
2023/01/23 01:03:09;;;;;;;44.42;18.08;;;;;;;2.16;91.17;102879.75;5073442;28;20063;-53
2023/01/23 01:05:36;;;;;;;42.28;18.35;;;;;;;2.24;90.84;102883.00;5073309;28;20119;-50
2023/01/23 01:08:04;;;;;;;42.05;18.15;;;;;;;2.24;90.49;102882.16;5072680;28;20512;-51
2023/01/23 01:10:31;;;;;;;36.75;17.85;;;;;;;2.16;90.93;102886.75;5072893;28;20056;-51
2023/01/23 01:13:00;;;;;;;41.67;18.65;;;;;;;2.24;91.05;102893.47;5073535;28;20045;-50
2023/01/23 01:15:27;;;;;;;40.78;17.42;;;;;;;2.22;90.76;102884.81;5072988;28;20075;-51
2023/01/23 01:17:56;;;;;;;38.55;17.83;;;;;;;2.29;90.13;102893.31;5072580;28;20123;-53
2023/01/23 01:20:25;;;;;;;44.08;18.48;;;;;;;2.32;90.65;102892.38;5069954;28;20044;-52
2023/01/23 01:22:53;;;;;;;38.05;18.85;;;;;;;2.32;90.08;102890.59;5071765;28;20048;-51
2023/01/23 01:25:20;;;;;;;42.85;19.02;;;;;;;2.23;90.17;102883.03;5072143;28;20118;-52
2023/01/23 01:27:47;;;;;;;40.50;18.30;;;;;;;2.12;91.51;102891.22;5072879;28;20045;-51
2023/01/23 01:30:15;;;;;;;41.50;18.55;;;;;;;2.12;90.68;102888.59;5073144;28;20053;-50
2023/01/23 01:32:43;;;;;;;39.30;17.75;;;;;;;2.04;91.47;102880.13;5073401;28;20074;-51
2023/01/23 01:35:11;;;;;;;42.78;19.35;;;;;;;2.00;91.88;102889.84;5072783;28;20056;-51
2023/01/23 01:37:39;;;;;;;40.60;18.27;;;;;;;2.00;91.91;102886.34;5072684;28;20449;-52
2023/01/23 01:40:09;;;;;;;43.70;18.70;;;;;;;2.14;91.28;102886.78;5072908;28;20051;-50
2023/01/23 01:42:42;;;;;;;43.30;18.05;;;;;;;2.14;91.28;102884.16;5073086;28;20059;-50
2023/01/23 01:45:48;;;;;;;41.38;18.55;;;;;;;2.31;91.15;102902.00;5073041;28;20051;-49
2023/01/23 01:48:17;;;;;;;41.70;18.55;;;;;;;2.44;90.93;102900.69;5072822;28;20041;-51
2023/01/23 01:50:44;;;;;;;42.78;18.55;;;;;;;2.33;90.22;102899.31;5073012;28;20486;-52
2023/01/23 01:53:10;;;;;;;43.75;19.20;;;;;;;2.29;90.18;102899.44;5072883;28;20057;-52
2023/01/23 01:55:38;;;;;;;48.53;18.20;;;;;;;2.27;90.91;102900.38;5073022;28;20040;-51
2023/01/23 01:58:07;;;;;;;45.67;19.92;;;;;;;2.21;90.80;102904.03;5072485;28;20037;-52
2023/01/23 02:00:34;;;;;;;46.92;20.95;;;;;;;2.24;91.27;102903.94;5072993;28;20055;-51
2023/01/23 02:03:02;;;;;;;51.25;21.13;;;;;;;2.08;92.20;102915.78;5072698;28;20059;-51
2023/01/23 02:05:38;;;;;;;54.65;22.40;;;;;;;2.15;91.99;102909.47;5072872;28;20056;-51
2023/01/23 02:08:21;;;;;;;51.75;22.20;;;;;;;2.20;91.64;102909.31;5071882;28;20040;-52
2023/01/23 02:10:50;;;;;;;49.58;21.45;;;;;;;2.35;91.89;102918.44;5072977;28;20135;-50
2023/01/23 02:13:24;;;;;;;54.88;22.83;;;;;;;2.42;91.64;102925.22;5072607;28;20044;-52
2023/01/23 02:15:51;;;;;;;54.78;24.20;;;;;;;2.21;91.88;102918.91;5072567;28;20053;-51
2023/01/23 02:18:20;;;;;;;57.55;23.58;;;;;;;2.20;92.48;102923.28;5072616;28;20044;-52
2023/01/23 02:20:49;;;;;;;54.05;23.70;;;;;;;2.17;92.99;102928.59;5072448;28;20059;-52
2023/01/23 02:23:47;;;;;;;51.90;23.45;;;;;;;2.28;92.33;102929.13;5075317;28;20048;-52
2023/01/23 02:26:24;;;;;;;52.80;23.40;;;;;;;2.29;92.18;102925.63;5075849;28;20136;-52
2023/01/23 02:28:52;;;;;;;57.97;24.58;;;;;;;2.26;92.67;102930.09;5076315;28;20406;-51
2023/01/23 02:31:21;;;;;;;54.85;24.40;;;;;;;2.40;92.62;102935.78;5076174;28;20055;-50
2023/01/23 02:33:54;;;;;;;60.13;24.05;;;;;;;2.33;92.40;102941.22;5076091;28;20132;-51
2023/01/23 02:36:24;;;;;;;54.03;24.10;;;;;;;2.25;92.32;102926.59;5075784;28;20057;-52
2023/01/23 02:39:01;;;;;;;57.40;23.15;;;;;;;2.37;91.66;102924.53;5075824;28;20067;-52
2023/01/23 02:41:31;;;;;;;56.78;23.70;;;;;;;2.33;92.13;102917.66;5075996;28;20529;-51
2023/01/23 02:44:03;;;;;;;52.72;23.33;;;;;;;2.34;92.28;102911.50;5076003;28;20090;-50
2023/01/23 02:46:30;;;;;;;57.03;23.88;;;;;;;2.48;91.86;102906.72;5076122;28;20071;-50
2023/01/23 02:48:57;;;;;;;50.22;23.02;;;;;;;2.38;91.20;102905.28;5075461;28;20513;-52
2023/01/23 02:51:24;;;;;;;53.47;23.17;;;;;;;2.40;91.27;102903.44;5075840;28;20557;-50
2023/01/23 02:53:50;;;;;;;55.85;22.90;;;;;;;2.25;91.60;102895.16;5075470;28;20051;-50
2023/01/23 02:56:18;;;;;;;51.63;23.00;;;;;;;2.23;91.57;102901.38;5075710;28;20068;-51
2023/01/23 03:01:34;;;;;;;51.35;22.85;;;;;;;2.09;92.11;102888.69;5075395;28;20159;-52
2023/01/23 03:04:05;;;;;;;53.03;23.00;;;;;;;2.09;92.30;102889.56;5075491;28;20458;-52
2023/01/23 03:06:36;;;;;;;49.05;22.27;;;;;;;2.05;92.46;102887.91;5075189;28;20040;-52
2023/01/23 03:09:06;;;;;;;50.83;22.42;;;;;;;1.98;92.13;102878.53;5075174;28;20055;-51
2023/01/23 03:11:34;;;;;;;48.50;22.13;;;;;;;2.06;92.55;102886.19;5075209;28;20044;-50
2023/01/23 03:14:03;;;;;;;51.83;22.17;;;;;;;1.99;92.24;102876.78;5075146;28;20056;-50
2023/01/23 03:16:31;;;;;;;47.17;22.05;;;;;;;1.97;92.12;102870.75;5075296;28;20036;-50
2023/01/23 03:19:03;;;;;;;49.65;22.38;;;;;;;1.94;92.23;102876.91;5072463;28;20063;-50
2023/01/23 03:21:32;;;;;;;48.25;22.30;;;;;;;2.03;91.84;102883.66;5073178;28;20076;-50
2023/01/23 03:23:59;;;;;;;49.17;21.27;;;;;;;1.95;92.17;102877.75;5074725;28;20048;-51
2023/01/23 03:26:25;;;;;;;47.47;21.95;;;;;;;1.95;92.20;102885.63;5070260;28;20102;-52
2023/01/23 03:31:39;;;;;;;44.88;21.42;;;;;;;1.72;93.16;102900.25;5074774;28;20043;-51
2023/01/23 03:34:06;;;;;;;50.15;22.08;;;;;;;1.81;93.15;102910.44;5074442;28;20040;-52
2023/01/23 03:36:36;;;;;;;48.60;22.58;;;;;;;1.71;93.33;102911.59;5074900;28;20113;-50
2023/01/23 03:41:53;;;;;;;46.85;22.00;;;;;;;1.71;93.92;102922.06;5074649;28;20057;-51
2023/01/23 03:44:21;;;;;;;44.45;21.30;;;;;;;1.72;94.16;102924.66;5074687;28;20086;-52
2023/01/23 03:46:50;;;;;;;51.90;21.52;;;;;;;1.73;93.98;102925.53;5074800;28;20051;-51
2023/01/23 03:49:17;;;;;;;46.70;20.73;;;;;;;1.60;95.05;102930.25;5074476;28;20041;-50
2023/01/23 03:51:48;;;;;;;51.30;22.35;;;;;;;1.66;94.24;102940.53;5074658;28;20110;-51
2023/01/23 03:54:15;;;;;;;49.05;21.55;;;;;;;1.70;94.59;102942.16;5074724;28;20044;-51
2023/01/23 03:56:42;;;;;;;47.55;21.88;;;;;;;1.81;93.80;102935.78;5074141;28;20406;-53
2023/01/23 03:59:22;;;;;;;43.00;20.58;;;;;;;1.89;94.21;102939.91;5074478;28;20036;-52
2023/01/23 04:01:49;;;;;;;42.35;20.85;;;;;;;1.92;93.11;102938.94;5074439;28;20072;-52
2023/01/23 04:04:16;;;;;;;38.17;19.17;;;;;;;1.88;92.69;102938.16;5074150;28;20059;-50
2023/01/23 04:06:43;;;;;;;39.72;18.20;;;;;;;1.80;93.12;102929.69;5073941;28;20045;-51
2023/01/23 04:09:10;;;;;;;40.65;18.60;;;;;;;1.78;92.62;102933.22;5073790;28;20040;-50
2023/01/23 04:11:38;;;;;;;37.15;17.60;;;;;;;1.84;92.73;102922.59;5074468;28;20041;-51
2023/01/23 04:14:06;;;;;;;40.53;19.50;;;;;;;1.80;91.92;102931.44;5073489;28;20383;-52
2023/01/23 04:16:32;;;;;;;39.30;18.83;;;;;;;1.70;92.39;102928.22;5074339;28;20565;-51
2023/01/23 04:18:59;;;;;;;40.85;18.48;;;;;;;1.80;92.62;102924.44;5073397;28;20079;-51
2023/01/23 04:21:26;;;;;;;38.50;18.52;;;;;;;1.79;91.98;102924.50;5074191;28;20045;-50
2023/01/23 04:23:52;;;;;;;37.88;18.05;;;;;;;1.87;92.05;102935.59;5074132;28;20099;-50
2023/01/23 04:26:19;;;;;;;35.75;17.85;;;;;;;1.78;92.41;102926.22;5073908;28;20051;-50
2023/01/23 04:28:46;;;;;;;39.10;17.85;;;;;;;1.79;92.12;102937.59;5073921;28;20114;-50
2023/01/23 04:31:14;;;;;;;39.90;18.27;;;;;;;1.84;91.84;102931.31;5073881;28;20106;-49
2023/01/23 04:33:41;;;;;;;38.30;18.52;;;;;;;1.90;91.91;102931.13;5073524;28;20052;-49
2023/01/23 04:36:08;;;;;;;37.17;18.25;;;;;;;1.90;91.42;102925.03;5073485;28;20101;-50
2023/01/23 04:38:35;;;;;;;36.70;18.40;;;;;;;1.90;92.01;102930.28;5073497;28;20495;-50
2023/01/23 04:41:22;;;;;;;39.25;17.27;;;;;;;1.91;91.28;102924.13;5073403;28;20048;-49
2023/01/23 04:44:18;;;;;;;38.60;16.98;;;;;;;1.87;91.35;102930.34;5073736;28;20043;-51
2023/01/23 04:46:48;;;;;;;42.08;18.55;;;;;;;1.90;91.83;102925.03;5073292;28;20068;-51
2023/01/23 04:49:18;;;;;;;37.17;17.77;;;;;;;1.86;91.46;102923.41;5073553;28;20118;-50
2023/01/23 04:51:47;;;;;;;39.33;18.05;;;;;;;1.96;92.17;102927.47;5073659;28;20447;-49
2023/01/23 04:54:13;;;;;;;36.70;18.60;;;;;;;2.06;91.15;102925.44;5073503;28;20048;-50
2023/01/23 04:56:42;;;;;;;40.38;19.17;;;;;;;2.09;91.48;102925.34;5073303;28;20098;-50
2023/01/23 04:59:09;;;;;;;39.38;19.23;;;;;;;2.07;90.80;102914.06;5073163;28;20041;-50
2023/01/23 05:01:36;;;;;;;42.03;19.48;;;;;;;1.89;91.45;102918.94;5073398;28;20045;-50
2023/01/23 05:04:03;;;;;;;43.13;19.52;;;;;;;1.90;91.38;102907.56;5072839;28;20446;-52
2023/01/23 05:06:31;;;;;;;41.60;19.73;;;;;;;2.00;91.43;102915.16;5073171;28;20512;-50
2023/01/23 05:08:58;;;;;;;41.30;19.95;;;;;;;1.88;91.93;102919.00;5072817;28;20524;-51
2023/01/23 05:11:36;;;;;;;41.70;19.73;;;;;;;2.08;91.61;102928.88;5073226;28;20049;-51
2023/01/23 05:14:04;;;;;;;44.85;21.02;;;;;;;2.09;91.60;102936.69;5073162;28;20505;-52
2023/01/23 05:16:32;;;;;;;43.80;20.05;;;;;;;2.17;91.95;102933.00;5073211;28;20049;-51
2023/01/23 05:19:13;;;;;;;45.40;20.80;;;;;;;2.08;91.96;102928.88;5057780;28;21156;-53
2023/01/23 05:21:40;;;;;;;45.17;21.13;;;;;;;2.09;92.29;102927.97;5045316;28;20126;-52
2023/01/23 05:24:11;;;;;;;44.58;20.35;;;;;;;2.11;92.11;102929.66;5070546;28;20498;-50
2023/01/23 05:26:37;;;;;;;47.28;20.92;;;;;;;2.20;91.33;102927.66;5042692;28;20048;-49
2023/01/23 05:29:05;;;;;;;42.42;20.35;;;;;;;2.26;90.61;102930.09;5073247;28;20050;-51
2023/01/23 05:31:35;;;;;;;41.53;19.83;;;;;;;2.08;91.26;102929.72;5071558;28;20048;-50
2023/01/23 05:34:22;;;;;;;41.17;19.35;;;;;;;2.06;91.17;102939.41;5085876;28;20052;-51
2023/01/23 05:36:49;;;;;;;36.97;17.95;;;;;;;2.05;91.29;102956.00;5085309;28;20730;-51
2023/01/23 05:39:16;;;;;;;42.38;18.98;;;;;;;2.06;91.07;102949.88;5062910;28;20456;-51
2023/01/23 05:41:43;;;;;;;44.20;19.67;;;;;;;2.08;91.77;102950.69;5046948;28;20051;-49
2023/01/23 05:44:29;;;;;;;40.60;18.10;;;;;;;1.98;91.43;102951.84;5077483;28;20448;-51
2023/01/23 05:47:03;;;;;;;39.45;17.83;;;;;;;1.78;91.73;102962.88;5072355;28;20048;-52
2023/01/23 05:49:30;;;;;;;40.83;18.73;;;;;;;2.01;92.09;102956.16;5068250;28;20131;-50
2023/01/23 05:51:57;;;;;;;38.33;17.73;;;;;;;1.97;91.51;102954.53;5072333;28;20040;-50
2023/01/23 05:54:24;;;;;;;36.20;17.95;;;;;;;1.80;91.86;102960.22;5069046;28;20048;-51
2023/01/23 05:56:51;;;;;;;38.83;17.70;;;;;;;1.89;91.61;102949.47;5067780;28;20127;-51
2023/01/23 05:59:38;;;;;;;40.03;17.48;;;;;;;1.85;91.82;102950.47;5076319;28;20056;-49
2023/01/23 06:02:17;;;;;;;35.85;17.52;;;;;;;1.75;91.46;102957.75;5071516;28;20596;-49
2023/01/23 06:05:04;;;;;;;36.25;17.05;;;;;;;1.92;90.92;102950.25;5075304;28;20041;-53
2023/01/23 06:07:48;;;;;;;39.70;17.58;;;;;;;1.81;91.29;102951.47;5072559;28;20056;-50
2023/01/23 06:10:15;;;;;;;36.15;17.20;;;;;;;1.85;91.47;102947.88;5058396;28;20055;-50
2023/01/23 06:12:42;;;;;;;36.08;16.27;;;;;;;1.90;91.31;102949.44;5069083;28;20037;-53
2023/01/23 06:15:09;;;;;;;35.42;16.63;;;;;;;1.80;91.38;102958.47;5075365;28;20044;-52
2023/01/23 06:17:36;;;;;;;35.53;16.58;;;;;;;1.81;91.55;102973.25;5071743;28;20124;-51
2023/01/23 06:20:04;;;;;;;38.67;17.17;;;;;;;1.92;91.64;102970.34;5074649;28;20079;-51
2023/01/23 06:22:31;;;;;;;36.83;16.60;;;;;;;1.76;92.08;102977.75;5072357;28;20080;-51
2023/01/23 06:25:05;;;;;;;37.22;16.85;;;;;;;1.84;91.87;102983.66;5072021;28;20045;-50
2023/01/23 06:27:31;;;;;;;32.97;15.35;;;;;;;1.81;91.98;102990.72;5076028;28;20509;-50
2023/01/23 06:30:02;;;;;;;35.67;15.70;;;;;;;1.81;91.63;102991.59;5072069;28;20478;-52
2023/01/23 06:32:32;;;;;;;34.42;15.93;;;;;;;1.86;91.40;102992.31;5075523;28;20075;-52
2023/01/23 06:34:58;;;;;;;36.38;16.05;;;;;;;1.88;91.26;102997.53;5040563;28;20083;-51
2023/01/23 06:37:26;;;;;;;34.83;16.20;;;;;;;1.84;91.29;102995.91;5084966;28;20052;-51
2023/01/23 06:39:53;;;;;;;33.72;16.08;;;;;;;1.81;91.64;103004.66;5090558;28;20150;-51
2023/01/23 06:42:20;;;;;;;40.55;18.27;;;;;;;1.78;92.19;103003.91;5095033;28;20052;-51
2023/01/23 06:44:48;;;;;;;37.15;16.17;;;;;;;1.85;92.02;103008.06;5090743;28;20813;-51
2023/01/23 06:47:15;;;;;;;38.47;18.33;;;;;;;1.95;91.79;103008.66;5090740;28;20450;-50
2023/01/23 06:49:43;;;;;;;40.22;17.25;;;;;;;1.82;91.71;103013.38;5095081;28;20075;-50
2023/01/23 06:52:10;;;;;;;35.53;17.13;;;;;;;1.82;91.77;103010.75;5069182;28;20131;-50
2023/01/23 06:54:37;;;;;;;37.88;17.48;;;;;;;1.79;91.81;103009.09;5073883;28;20125;-49
2023/01/23 06:57:05;;;;;;;37.95;17.52;;;;;;;1.98;91.87;103019.06;5070310;28;20417;-49
2023/01/23 06:59:32;;;;;;;35.13;16.83;;;;;;;1.87;91.84;103020.22;5075140;28;20048;-51
2023/01/23 07:02:01;;;;;;;37.20;16.48;;;;;;;1.94;92.09;103025.28;5068507;28;20048;-50
2023/01/23 07:04:37;;;;;;;35.42;16.50;;;;;;;2.00;91.30;103019.88;5074233;28;20040;-51
2023/01/23 07:07:04;;;;;;;36.83;17.10;;;;;;;1.97;92.00;103025.22;5051908;28;20071;-51
2023/01/23 07:09:32;;;;;;;42.72;18.85;;;;;;;2.17;91.55;103035.13;5064829;28;20051;-50
2023/01/23 07:12:06;;;;;;;39.50;18.90;;;;;;;2.08;91.34;103036.25;5053709;28;20060;-51
2023/01/23 07:14:33;;;;;;;39.25;18.02;;;;;;;2.16;91.60;103042.09;5050757;28;20049;-51
2023/01/23 07:17:00;;;;;;;39.70;18.30;;;;;;;2.25;91.21;103043.59;5054200;28;20048;-51
2023/01/23 07:19:27;;;;;;;37.47;18.40;;;;;;;2.30;90.69;103044.34;5046587;28;20422;-51
2023/01/23 07:21:55;;;;;;;41.97;19.08;;;;;;;2.18;91.27;103050.78;5054497;28;20049;-52
2023/01/23 07:24:21;;;;;;;40.47;18.55;;;;;;;2.27;91.17;103047.91;5048059;28;20044;-50
2023/01/23 07:26:48;;;;;;;38.95;17.98;;;;;;;2.20;91.04;103051.63;5072512;28;20041;-50
2023/01/23 07:29:15;;;;;;;45.40;18.55;;;;;;;2.22;91.57;103060.28;5070438;28;20044;-51
2023/01/23 07:31:41;;;;;;;40.20;18.58;;;;;;;2.08;91.97;103055.41;5052311;28;20041;-50
2023/01/23 07:34:08;;;;;;;36.72;17.40;;;;;;;2.11;92.29;103059.69;5074107;28;20597;-52
2023/01/23 07:36:35;;;;;;;40.67;18.63;;;;;;;2.09;92.28;103066.75;5065813;28;20044;-51
2023/01/23 07:39:02;;;;;;;41.80;18.30;;;;;;;1.96;93.09;103058.38;5073441;28;20047;-50
2023/01/23 07:41:29;;;;;;;40.17;17.13;;;;;;;2.09;92.47;103069.34;5070043;28;20047;-51
2023/01/23 07:44:01;;;;;;;39.90;18.85;;;;;;;2.14;92.58;103070.09;5074252;28;20044;-52
2023/01/23 07:46:27;;;;;;;40.20;18.50;;;;;;;2.19;91.85;103067.38;5066244;28;20127;-51
2023/01/23 07:48:55;;;;;;;42.20;18.00;;;;;;;2.24;91.99;103063.72;5065158;28;20048;-51
2023/01/23 07:51:21;;;;;;;38.38;17.92;;;;;;;2.28;91.43;103073.19;5082902;28;20337;-51
2023/01/23 07:53:48;;;;;;;38.50;17.00;;;;;;;2.24;91.38;103073.34;5093075;28;20390;-50
2023/01/23 07:56:15;;;;;;;37.55;17.48;;;;;;;2.17;91.61;103069.16;5088232;28;20438;-52
2023/01/23 07:58:42;;;;;;;39.85;17.30;;;;;;;2.20;91.87;103080.41;5070641;28;20650;-51
2023/01/23 08:01:09;;;;;;;38.88;17.92;;;;;;;2.27;91.99;103086.31;5070586;28;20044;-51
2023/01/23 08:03:36;;;;;;;35.58;16.88;;;;;;;2.39;91.40;103083.38;5079074;28;20053;-51
2023/01/23 08:06:05;;;;;;;39.75;16.20;;;;;;;2.35;91.37;103096.59;5072917;28;20135;-52
2023/01/23 08:08:32;;;;;;;35.13;16.45;;;;;;;2.16;91.62;103091.84;5067492;28;20036;-50
2023/01/23 08:11:02;;;;;;;41.28;16.83;;;;;;;2.11;92.21;103089.38;5073034;28;20448;-53
2023/01/23 08:13:29;;;;;;;38.05;17.25;;;;;;;2.22;91.68;103090.81;5069009;28;20056;-51
2023/01/23 08:15:57;;;;;;;35.10;16.52;;;;;;;2.22;91.35;103086.47;5072810;28;20124;-50
2023/01/23 08:18:25;;;;;;;38.13;16.10;;;;;;;2.21;91.68;103082.13;5050810;28;20149;-52
2023/01/23 08:20:54;;;;;;;40.08;16.35;;;;;;;2.23;92.02;103079.47;5064953;28;20154;-51
2023/01/23 08:23:25;;;;;;;36.03;16.27;;;;;;;2.33;92.05;103077.44;5067529;28;20052;-51
2023/01/23 08:25:53;;;;;;;34.95;16.27;;;;;;;2.39;91.53;103075.50;5073319;28;20448;-49
2023/01/23 08:28:21;;;;;;;38.42;17.42;;;;;;;2.48;91.47;103079.63;5071511;28;20049;-52
2023/01/23 08:30:48;;;;;;;39.58;17.70;;;;;;;2.53;91.32;103074.25;5067070;28;20048;-51
2023/01/23 08:33:16;;;;;;;37.15;18.20;;;;;;;2.50;91.48;103078.66;5060762;28;20401;-52
2023/01/23 08:35:52;;;;;;;38.38;17.48;;;;;;;2.43;91.83;103079.75;5054255;28;20055;-50
2023/01/23 08:38:20;;;;;;;42.67;19.17;;;;;;;2.53;91.18;103090.84;5069041;28;20048;-53
2023/01/23 08:40:48;;;;;;;45.92;18.92;;;;;;;2.55;91.97;103085.53;5068786;28;20071;-52
2023/01/23 08:43:17;;;;;;;39.67;16.83;;;;;;;2.46;91.69;103094.53;5072135;28;20135;-50
2023/01/23 08:45:50;;;;;;;44.72;18.80;;;;;;;2.62;91.22;103087.97;5067982;28;20048;-50
2023/01/23 08:48:19;;;;;;;46.88;18.67;;;;;;;2.63;91.04;103099.28;5059197;28;20685;-52
2023/01/23 08:50:46;;;;;;;50.78;18.77;;;;;;;2.64;90.84;103106.25;5074113;28;20032;-50
2023/01/23 08:53:13;;;;;;;45.08;19.17;;;;;;;2.68;90.67;103102.63;5071999;28;20055;-51
2023/01/23 08:55:40;;;;;;;47.85;20.77;;;;;;;2.75;90.24;103098.94;5064713;28;20045;-52
2023/01/23 08:58:11;;;;;;;46.70;19.65;;;;;;;2.79;90.54;103102.31;5070932;28;20113;-50
2023/01/23 09:00:39;;;;;;;45.65;19.73;;;;;;;2.88;90.76;103102.03;5068524;28;20204;-54
2023/01/23 09:03:06;;;;;;;46.55;20.30;;;;;;;2.98;90.39;103103.47;5072323;28;20040;-53
2023/01/23 09:05:34;;;;;;;47.60;19.65;;;;;;;3.08;89.46;103102.28;5068148;28;20056;-53
2023/01/23 09:08:01;;;;;;;46.08;19.67;;;;;;;3.08;89.52;103104.91;5071941;28;20044;-52
2023/01/23 09:10:28;;;;;;;48.53;20.05;;;;;;;3.01;89.63;103110.41;5049973;28;20044;-51
2023/01/23 09:12:55;;;;;;;48.30;20.13;;;;;;;2.93;89.76;103105.41;5067934;28;20546;-53
2023/01/23 09:15:21;;;;;;;49.95;20.90;;;;;;;2.97;89.40;103101.75;5070958;28;20057;-53
2023/01/23 09:17:49;;;;;;;53.63;21.05;;;;;;;2.99;89.46;103113.06;5071576;28;20041;-52
2023/01/23 09:20:16;;;;;;;51.35;20.25;;;;;;;3.01;89.75;103113.03;5071336;28;20037;-52
2023/01/23 09:22:43;;;;;;;51.20;20.30;;;;;;;3.08;89.05;103118.03;5069658;28;20067;-52
2023/01/23 09:25:10;;;;;;;51.58;20.33;;;;;;;2.92;89.87;103111.53;5072682;28;20604;-53
2023/01/23 09:27:37;;;;;;;53.40;20.70;;;;;;;2.97;89.90;103114.03;5053509;28;20889;-53
2023/01/23 09:30:06;;;;;;;53.60;21.42;;;;;;;3.20;89.24;103113.28;5075552;28;20033;-52
2023/01/23 09:32:33;;;;;;;50.42;19.80;;;;;;;3.18;88.57;103115.97;5076480;28;20049;-51
2023/01/23 09:34:59;;;;;;;46.58;19.50;;;;;;;2.99;88.97;103107.81;5060844;28;20048;-51
2023/01/23 09:37:58;;;;;;;44.05;19.02;;;;;;;2.79;89.65;103116.28;5077394;28;20358;-53
2023/01/23 09:40:18;;;;;;;49.83;20.00;;;;;;;2.73;89.49;103116.47;5072074;28;20120;-51
2023/01/23 09:42:45;;;;;;;52.28;19.73;;;;;;;2.66;90.05;103112.31;5076017;28;20064;-52
2023/01/23 09:45:18;;;;;;;49.42;18.60;;;;;;;2.50;90.02;103119.75;5070101;28;20055;-52
2023/01/23 09:48:03;;;;;;;48.65;18.95;;;;;;;2.49;89.71;103108.41;5091371;28;20135;-52
2023/01/23 09:50:35;;;;;;;49.40;19.80;;;;;;;2.75;89.24;103127.78;5068592;28;20059;-52
2023/01/23 09:53:11;;;;;;;49.63;18.80;;;;;;;2.88;89.65;103121.25;5076990;28;20059;-53
2023/01/23 09:55:44;;;;;;;40.67;18.17;;;;;;;2.99;89.13;103117.47;5070093;28;20086;-52
2023/01/23 09:58:26;;;;;;;45.55;18.70;;;;;;;3.16;87.44;103124.78;5076266;28;20379;-52
2023/01/23 10:00:53;;;;;;;48.95;18.58;;;;;;;3.02;87.82;103117.34;5071717;28;20448;-51
2023/01/23 10:03:26;;;;;;;41.92;18.33;;;;;;;3.21;87.97;103121.13;5074712;28;20048;-53
2023/01/23 10:06:20;;;;;;;44.90;18.75;;;;;;;3.16;87.10;103130.03;5072047;28;20123;-51
2023/01/23 10:09:27;;;;;;;44.33;17.05;;;;;;;3.26;87.03;103123.63;5076270;28;20036;-52
2023/01/23 10:12:03;;;;;;;43.63;18.70;;;;;;;3.14;86.86;103126.63;5055014;28;20133;-53
2023/01/23 10:15:00;;;;;;;48.38;18.88;;;;;;;3.22;86.52;103124.59;5064616;28;20044;-51
2023/01/23 10:17:50;;;;;;;39.00;16.90;;;;;;;3.39;86.06;103127.56;5072472;28;20102;-51
2023/01/23 10:20:57;;;;;;;46.95;17.42;;;;;;;3.38;84.88;103115.34;5071728;28;20041;-50
2023/01/23 10:26:22;;;;;;;42.58;16.17;;;;;;;3.35;84.57;103128.56;5103754;27;20376;-52
2023/01/23 10:28:55;;;;;;;42.55;18.48;;;;;;;3.25;84.21;103117.50;5107585;28;20123;-51
2023/01/23 10:31:31;;;;;;;45.60;17.70;;;;;;;3.41;85.14;103122.25;5105950;28;20404;-51
2023/01/23 10:37:14;;;;;;;41.20;17.35;;;;;;;3.36;83.36;103119.78;5076838;28;20413;-50
2023/01/23 10:39:56;;;;;;;43.35;17.05;;;;;;;3.38;83.73;103135.47;5087367;28;20089;-50
2023/01/23 10:42:24;;;;;;;;;;;;;;;3.26;83.13;103124.47;5085941;28;20071;-49
2023/01/23 10:44:51;;;;;;;42.05;16.95;;;;;;;3.31;83.57;103131.31;5077990;28;19924;-51
2023/01/23 10:47:33;;;;;;;41.17;17.27;;;;;;;3.29;83.38;103126.13;5064588;28;20051;-50
2023/01/23 10:50:00;;;;;;;44.58;18.80;;;;;;;3.44;83.15;103130.91;5076145;28;20401;-51
2023/01/23 10:52:45;;;;;;;48.88;18.15;;;;;;;3.41;83.69;103128.34;5075863;28;20132;-51
2023/01/23 10:58:02;;;;;;;49.47;18.48;;;;;;;3.48;83.43;103129.03;5068106;28;20756;-53
2023/01/23 11:00:36;;;;;;;44.53;17.92;;;;;;;3.52;82.09;103128.03;5040098;28;20565;-53
2023/01/23 11:03:27;;;;;;;40.80;17.05;;;;;;;3.44;81.73;103135.28;5067437;28;20041;-52
2023/01/23 11:06:01;;;;;;;37.30;16.88;;;;;;;3.39;82.98;103134.59;5069449;28;20045;-53
2023/01/23 11:11:19;;;;;;;48.40;17.52;;;;;;;3.63;81.92;103125.03;5081756;27;20145;-51
2023/01/23 11:13:49;;;;;;;42.35;18.67;;;;;;;3.72;82.34;103131.75;5070649;28;20041;-50
2023/01/23 11:16:19;;;;;;;43.13;17.75;;;;;;;3.60;82.18;103125.13;5066037;28;20048;-51
2023/01/23 11:18:53;;;;;;;46.33;17.52;;;;;;;3.59;82.67;103126.91;5064569;28;20048;-50
2023/01/23 11:21:22;;;;;;;40.85;17.27;;;;;;;3.48;82.82;103125.56;5082392;28;20052;-50
2023/01/23 11:24:07;;;;;;;42.53;18.33;;;;;;;3.69;82.04;103119.59;5086154;28;20044;-49
2023/01/23 11:26:36;;;;;;;42.25;18.17;;;;;;;3.79;80.62;103120.16;5078441;28;20040;-49
2023/01/23 11:29:19;;;;;;;44.92;18.08;;;;;;;3.48;82.35;103113.28;5084703;28;20610;-53
2023/01/23 11:31:49;;;;;;;42.45;18.38;;;;;;;3.59;82.42;103116.41;5080687;28;20036;-52
2023/01/23 11:34:23;;;;;;;42.13;19.02;;;;;;;3.61;82.24;103111.97;5092558;28;20041;-52
2023/01/23 11:36:59;;;;;;;38.83;18.52;;;;;;;3.57;81.48;103107.72;5079557;28;20462;-51
2023/01/23 11:39:41;;;;;;;38.83;18.00;;;;;;;3.57;81.74;103109.50;5070654;28;21204;-51
2023/01/23 11:42:11;;;;;;;42.55;18.08;;;;;;;3.55;81.46;103106.94;5076392;28;20070;-53
2023/01/23 11:44:40;;;;;;;41.15;18.40;;;;;;;3.55;81.79;103101.69;5082359;28;20123;-51
2023/01/23 11:47:42;;;;;;;41.05;18.23;;;;;;;3.70;82.06;103102.09;5087939;28;20055;-51
2023/01/23 11:50:24;;;;;;;46.90;19.08;;;;;;;3.57;81.44;103097.22;5078127;28;20390;-50
2023/01/23 11:53:00;;;;;;;40.83;18.08;;;;;;;3.65;81.41;103103.06;5087345;28;20444;-51